sensor_id;sensor_type;location;lat;lon;timestamp;P1;durP1;ratioP1;P2;durP2;ratioP2
12480;SDS011;6305;48.398;11.762;2023-12-20T00:02:09;3.85;;;2.60;;
12480;SDS011;6305;48.398;11.762;2023-12-20T00:04:36;3.67;;;2.80;;
12480;SDS011;6305;48.398;11.762;2023-12-20T00:07:03;5.03;;;2.60;;
12480;SDS011;6305;48.398;11.762;2023-12-20T00:09:30;4.95;;;2.78;;
12480;SDS011;6305;48.398;11.762;2023-12-20T00:11:57;3.88;;;2.60;;
12480;SDS011;6305;48.398;11.762;2023-12-20T00:14:24;3.38;;;2.30;;
12480;SDS011;6305;48.398;11.762;2023-12-20T00:16:52;3.20;;;2.20;;
12480;SDS011;6305;48.398;11.762;2023-12-20T00:19:19;2.78;;;2.22;;
12480;SDS011;6305;48.398;11.762;2023-12-20T00:21:46;3.38;;;2.40;;
12480;SDS011;6305;48.398;11.762;2023-12-20T00:24:13;3.15;;;2.30;;
12480;SDS011;6305;48.398;11.762;2023-12-20T00:26:40;3.72;;;2.20;;
12480;SDS011;6305;48.398;11.762;2023-12-20T00:29:07;3.00;;;2.40;;
12480;SDS011;6305;48.398;11.762;2023-12-20T00:31:35;3.15;;;2.30;;
12480;SDS011;6305;48.398;11.762;2023-12-20T00:34:03;4.47;;;2.35;;
12480;SDS011;6305;48.398;11.762;2023-12-20T00:36:30;3.53;;;2.30;;
12480;SDS011;6305;48.398;11.762;2023-12-20T00:38:57;4.45;;;2.28;;
12480;SDS011;6305;48.398;11.762;2023-12-20T00:41:24;3.13;;;2.20;;
12480;SDS011;6305;48.398;11.762;2023-12-20T00:43:51;3.28;;;1.92;;
12480;SDS011;6305;48.398;11.762;2023-12-20T00:46:18;3.42;;;2.13;;
12480;SDS011;6305;48.398;11.762;2023-12-20T00:48:45;4.10;;;2.65;;
12480;SDS011;6305;48.398;11.762;2023-12-20T00:51:14;3.33;;;2.22;;
12480;SDS011;6305;48.398;11.762;2023-12-20T00:53:41;3.13;;;2.00;;
12480;SDS011;6305;48.398;11.762;2023-12-20T00:56:08;3.65;;;2.17;;
12480;SDS011;6305;48.398;11.762;2023-12-20T00:58:35;3.25;;;2.17;;
12480;SDS011;6305;48.398;11.762;2023-12-20T01:01:02;3.72;;;1.98;;
12480;SDS011;6305;48.398;11.762;2023-12-20T01:03:29;3.95;;;2.30;;
12480;SDS011;6305;48.398;11.762;2023-12-20T01:05:56;3.35;;;2.10;;
12480;SDS011;6305;48.398;11.762;2023-12-20T01:08:24;3.17;;;2.15;;
12480;SDS011;6305;48.398;11.762;2023-12-20T01:10:51;4.72;;;2.17;;
12480;SDS011;6305;48.398;11.762;2023-12-20T01:13:18;3.70;;;2.20;;
12480;SDS011;6305;48.398;11.762;2023-12-20T01:15:45;2.83;;;1.92;;
12480;SDS011;6305;48.398;11.762;2023-12-20T01:18:13;4.13;;;2.28;;
12480;SDS011;6305;48.398;11.762;2023-12-20T01:20:40;3.47;;;2.38;;
12480;SDS011;6305;48.398;11.762;2023-12-20T01:23:07;5.07;;;2.50;;
12480;SDS011;6305;48.398;11.762;2023-12-20T01:25:36;3.22;;;2.22;;
12480;SDS011;6305;48.398;11.762;2023-12-20T01:28:03;3.83;;;2.55;;
12480;SDS011;6305;48.398;11.762;2023-12-20T01:30:30;3.67;;;2.33;;
12480;SDS011;6305;48.398;11.762;2023-12-20T01:32:58;3.60;;;2.22;;
12480;SDS011;6305;48.398;11.762;2023-12-20T01:35:26;3.65;;;2.35;;
12480;SDS011;6305;48.398;11.762;2023-12-20T01:37:53;4.05;;;2.45;;
12480;SDS011;6305;48.398;11.762;2023-12-20T01:40:22;3.20;;;2.55;;
12480;SDS011;6305;48.398;11.762;2023-12-20T01:42:58;4.03;;;2.75;;
12480;SDS011;6305;48.398;11.762;2023-12-20T01:45:26;3.75;;;2.92;;
12480;SDS011;6305;48.398;11.762;2023-12-20T01:47:53;3.78;;;2.67;;
12480;SDS011;6305;48.398;11.762;2023-12-20T01:50:20;3.53;;;2.42;;
12480;SDS011;6305;48.398;11.762;2023-12-20T01:52:48;4.05;;;2.75;;
12480;SDS011;6305;48.398;11.762;2023-12-20T01:55:17;3.53;;;2.53;;
12480;SDS011;6305;48.398;11.762;2023-12-20T01:57:45;4.38;;;2.92;;
12480;SDS011;6305;48.398;11.762;2023-12-20T02:00:14;3.35;;;2.60;;
12480;SDS011;6305;48.398;11.762;2023-12-20T02:02:41;4.13;;;2.80;;
12480;SDS011;6305;48.398;11.762;2023-12-20T02:05:10;3.35;;;2.40;;
12480;SDS011;6305;48.398;11.762;2023-12-20T02:07:38;3.58;;;2.50;;
12480;SDS011;6305;48.398;11.762;2023-12-20T02:10:06;3.38;;;2.70;;
12480;SDS011;6305;48.398;11.762;2023-12-20T02:12:33;3.88;;;2.58;;
12480;SDS011;6305;48.398;11.762;2023-12-20T02:15:00;3.60;;;2.58;;
12480;SDS011;6305;48.398;11.762;2023-12-20T02:17:29;3.80;;;2.40;;
12480;SDS011;6305;48.398;11.762;2023-12-20T02:19:57;3.35;;;2.50;;
12480;SDS011;6305;48.398;11.762;2023-12-20T02:22:26;3.20;;;2.50;;
12480;SDS011;6305;48.398;11.762;2023-12-20T02:24:52;3.60;;;2.42;;
12480;SDS011;6305;48.398;11.762;2023-12-20T02:27:19;3.90;;;2.58;;
12480;SDS011;6305;48.398;11.762;2023-12-20T02:29:47;2.65;;;2.10;;
12480;SDS011;6305;48.398;11.762;2023-12-20T02:32:14;3.17;;;2.10;;
12480;SDS011;6305;48.398;11.762;2023-12-20T02:34:42;2.78;;;1.98;;
12480;SDS011;6305;48.398;11.762;2023-12-20T02:37:09;2.85;;;2.38;;
12480;SDS011;6305;48.398;11.762;2023-12-20T02:39:37;2.85;;;2.17;;
12480;SDS011;6305;48.398;11.762;2023-12-20T02:42:04;4.65;;;2.40;;
12480;SDS011;6305;48.398;11.762;2023-12-20T02:44:31;3.20;;;2.40;;
12480;SDS011;6305;48.398;11.762;2023-12-20T02:46:58;3.33;;;2.25;;
12480;SDS011;6305;48.398;11.762;2023-12-20T02:49:25;3.10;;;2.35;;
12480;SDS011;6305;48.398;11.762;2023-12-20T02:51:52;2.88;;;2.20;;
12480;SDS011;6305;48.398;11.762;2023-12-20T02:54:19;2.47;;;1.95;;
12480;SDS011;6305;48.398;11.762;2023-12-20T02:56:47;2.78;;;2.30;;
12480;SDS011;6305;48.398;11.762;2023-12-20T02:59:14;3.22;;;1.90;;
12480;SDS011;6305;48.398;11.762;2023-12-20T03:01:42;2.67;;;2.03;;
12480;SDS011;6305;48.398;11.762;2023-12-20T03:04:09;2.03;;;1.80;;
12480;SDS011;6305;48.398;11.762;2023-12-20T03:06:36;2.90;;;2.00;;
12480;SDS011;6305;48.398;11.762;2023-12-20T03:09:04;2.63;;;2.20;;
12480;SDS011;6305;48.398;11.762;2023-12-20T03:11:30;2.22;;;1.90;;
12480;SDS011;6305;48.398;11.762;2023-12-20T03:13:59;3.55;;;2.03;;
12480;SDS011;6305;48.398;11.762;2023-12-20T03:16:26;3.65;;;2.08;;
12480;SDS011;6305;48.398;11.762;2023-12-20T03:18:52;2.58;;;1.73;;
12480;SDS011;6305;48.398;11.762;2023-12-20T03:21:19;2.47;;;1.95;;
12480;SDS011;6305;48.398;11.762;2023-12-20T03:23:46;3.33;;;2.00;;
12480;SDS011;6305;48.398;11.762;2023-12-20T03:26:14;3.13;;;1.83;;
12480;SDS011;6305;48.398;11.762;2023-12-20T03:28:41;2.28;;;1.75;;
12480;SDS011;6305;48.398;11.762;2023-12-20T03:31:10;3.55;;;2.10;;
12480;SDS011;6305;48.398;11.762;2023-12-20T03:33:37;3.13;;;1.83;;
12480;SDS011;6305;48.398;11.762;2023-12-20T03:36:04;2.50;;;1.90;;
12480;SDS011;6305;48.398;11.762;2023-12-20T03:38:31;2.47;;;1.70;;
12480;SDS011;6305;48.398;11.762;2023-12-20T03:40:58;3.13;;;1.90;;
12480;SDS011;6305;48.398;11.762;2023-12-20T03:43:25;2.35;;;1.85;;
12480;SDS011;6305;48.398;11.762;2023-12-20T03:45:52;2.70;;;1.85;;
12480;SDS011;6305;48.398;11.762;2023-12-20T03:48:20;2.50;;;1.77;;
12480;SDS011;6305;48.398;11.762;2023-12-20T03:50:47;3.42;;;2.00;;
12480;SDS011;6305;48.398;11.762;2023-12-20T03:53:14;2.15;;;1.80;;
12480;SDS011;6305;48.398;11.762;2023-12-20T03:55:41;2.33;;;1.75;;
12480;SDS011;6305;48.398;11.762;2023-12-20T03:58:08;2.38;;;1.80;;
12480;SDS011;6305;48.398;11.762;2023-12-20T04:00:34;2.33;;;1.77;;
12480;SDS011;6305;48.398;11.762;2023-12-20T04:03:01;2.80;;;1.95;;
12480;SDS011;6305;48.398;11.762;2023-12-20T04:05:30;5.00;;;2.00;;
12480;SDS011;6305;48.398;11.762;2023-12-20T04:07:57;2.40;;;1.70;;
12480;SDS011;6305;48.398;11.762;2023-12-20T04:10:25;2.67;;;1.85;;
12480;SDS011;6305;48.398;11.762;2023-12-20T04:12:53;2.65;;;1.92;;
12480;SDS011;6305;48.398;11.762;2023-12-20T04:15:20;2.78;;;1.95;;
12480;SDS011;6305;48.398;11.762;2023-12-20T04:17:47;3.50;;;1.83;;
12480;SDS011;6305;48.398;11.762;2023-12-20T04:20:14;2.50;;;1.75;;
12480;SDS011;6305;48.398;11.762;2023-12-20T04:22:43;2.92;;;1.95;;
12480;SDS011;6305;48.398;11.762;2023-12-20T04:25:09;2.15;;;1.92;;
12480;SDS011;6305;48.398;11.762;2023-12-20T04:27:36;4.10;;;2.10;;
12480;SDS011;6305;48.398;11.762;2023-12-20T04:30:04;2.95;;;1.88;;
12480;SDS011;6305;48.398;11.762;2023-12-20T04:32:32;3.30;;;1.98;;
12480;SDS011;6305;48.398;11.762;2023-12-20T04:35:00;3.05;;;2.38;;
12480;SDS011;6305;48.398;11.762;2023-12-20T04:37:26;3.75;;;2.20;;
12480;SDS011;6305;48.398;11.762;2023-12-20T04:39:55;3.58;;;2.15;;
12480;SDS011;6305;48.398;11.762;2023-12-20T04:42:22;3.17;;;2.20;;
12480;SDS011;6305;48.398;11.762;2023-12-20T04:44:48;3.25;;;2.15;;
12480;SDS011;6305;48.398;11.762;2023-12-20T04:47:15;3.45;;;2.15;;
12480;SDS011;6305;48.398;11.762;2023-12-20T04:49:42;3.80;;;2.38;;
12480;SDS011;6305;48.398;11.762;2023-12-20T04:52:09;3.55;;;2.72;;
12480;SDS011;6305;48.398;11.762;2023-12-20T04:54:36;3.78;;;2.65;;
12480;SDS011;6305;48.398;11.762;2023-12-20T04:57:04;4.85;;;2.72;;
12480;SDS011;6305;48.398;11.762;2023-12-20T04:59:30;3.72;;;2.60;;
12480;SDS011;6305;48.398;11.762;2023-12-20T05:01:57;3.25;;;2.67;;
12480;SDS011;6305;48.398;11.762;2023-12-20T05:04:25;4.35;;;2.75;;
12480;SDS011;6305;48.398;11.762;2023-12-20T05:06:52;3.78;;;2.50;;
12480;SDS011;6305;48.398;11.762;2023-12-20T05:09:18;6.72;;;2.97;;
12480;SDS011;6305;48.398;11.762;2023-12-20T05:11:45;4.68;;;2.80;;
12480;SDS011;6305;48.398;11.762;2023-12-20T05:14:14;5.25;;;2.80;;
12480;SDS011;6305;48.398;11.762;2023-12-20T05:16:41;4.00;;;2.80;;
12480;SDS011;6305;48.398;11.762;2023-12-20T05:19:08;4.47;;;2.80;;
12480;SDS011;6305;48.398;11.762;2023-12-20T05:21:34;4.43;;;2.65;;
12480;SDS011;6305;48.398;11.762;2023-12-20T05:24:02;5.03;;;2.45;;
12480;SDS011;6305;48.398;11.762;2023-12-20T05:26:29;3.67;;;2.67;;
12480;SDS011;6305;48.398;11.762;2023-12-20T05:28:56;4.35;;;3.00;;
12480;SDS011;6305;48.398;11.762;2023-12-20T05:31:24;4.35;;;2.63;;
12480;SDS011;6305;48.398;11.762;2023-12-20T05:33:50;5.15;;;3.17;;
12480;SDS011;6305;48.398;11.762;2023-12-20T05:36:17;4.85;;;2.88;;
12480;SDS011;6305;48.398;11.762;2023-12-20T05:38:45;4.77;;;2.93;;
12480;SDS011;6305;48.398;11.762;2023-12-20T05:41:12;5.30;;;3.03;;
12480;SDS011;6305;48.398;11.762;2023-12-20T05:43:39;4.55;;;2.85;;
12480;SDS011;6305;48.398;11.762;2023-12-20T05:46:05;4.90;;;3.33;;
12480;SDS011;6305;48.398;11.762;2023-12-20T05:48:34;4.75;;;2.80;;
12480;SDS011;6305;48.398;11.762;2023-12-20T05:51:01;4.55;;;3.40;;
12480;SDS011;6305;48.398;11.762;2023-12-20T05:53:28;4.55;;;3.30;;
12480;SDS011;6305;48.398;11.762;2023-12-20T05:55:55;5.00;;;3.28;;
12480;SDS011;6305;48.398;11.762;2023-12-20T05:58:21;4.93;;;3.15;;
12480;SDS011;6305;48.398;11.762;2023-12-20T06:00:48;4.15;;;2.92;;
12480;SDS011;6305;48.398;11.762;2023-12-20T06:03:15;5.25;;;2.95;;
12480;SDS011;6305;48.398;11.762;2023-12-20T06:05:43;3.72;;;2.85;;
12480;SDS011;6305;48.398;11.762;2023-12-20T06:08:10;4.75;;;2.67;;
12480;SDS011;6305;48.398;11.762;2023-12-20T06:10:37;4.90;;;2.97;;
12480;SDS011;6305;48.398;11.762;2023-12-20T06:13:05;5.40;;;3.00;;
12480;SDS011;6305;48.398;11.762;2023-12-20T06:15:32;3.90;;;3.05;;
12480;SDS011;6305;48.398;11.762;2023-12-20T06:18:00;4.88;;;2.88;;
12480;SDS011;6305;48.398;11.762;2023-12-20T06:20:27;3.85;;;2.60;;
12480;SDS011;6305;48.398;11.762;2023-12-20T06:22:56;3.65;;;2.47;;
12480;SDS011;6305;48.398;11.762;2023-12-20T06:25:23;4.38;;;2.67;;
12480;SDS011;6305;48.398;11.762;2023-12-20T06:27:49;4.03;;;2.63;;
12480;SDS011;6305;48.398;11.762;2023-12-20T06:30:16;5.00;;;2.83;;
12480;SDS011;6305;48.398;11.762;2023-12-20T06:32:43;3.95;;;3.00;;
12480;SDS011;6305;48.398;11.762;2023-12-20T06:35:12;4.35;;;3.05;;
12480;SDS011;6305;48.398;11.762;2023-12-20T06:37:39;4.30;;;2.80;;
12480;SDS011;6305;48.398;11.762;2023-12-20T06:40:09;3.63;;;2.80;;
12480;SDS011;6305;48.398;11.762;2023-12-20T06:42:36;4.28;;;2.70;;
12480;SDS011;6305;48.398;11.762;2023-12-20T06:45:04;3.33;;;2.75;;
12480;SDS011;6305;48.398;11.762;2023-12-20T06:47:31;4.57;;;2.80;;
12480;SDS011;6305;48.398;11.762;2023-12-20T06:49:58;4.00;;;2.83;;
12480;SDS011;6305;48.398;11.762;2023-12-20T06:52:25;4.25;;;2.88;;
12480;SDS011;6305;48.398;11.762;2023-12-20T06:54:52;4.32;;;2.85;;
12480;SDS011;6305;48.398;11.762;2023-12-20T06:57:21;3.67;;;2.30;;
12480;SDS011;6305;48.398;11.762;2023-12-20T06:59:49;4.28;;;2.63;;
12480;SDS011;6305;48.398;11.762;2023-12-20T07:02:17;3.72;;;2.75;;
12480;SDS011;6305;48.398;11.762;2023-12-20T07:04:44;4.00;;;2.88;;
12480;SDS011;6305;48.398;11.762;2023-12-20T07:07:11;5.72;;;3.22;;
12480;SDS011;6305;48.398;11.762;2023-12-20T07:09:38;3.63;;;2.83;;
12480;SDS011;6305;48.398;11.762;2023-12-20T07:12:07;4.03;;;2.90;;
12480;SDS011;6305;48.398;11.762;2023-12-20T07:14:36;5.47;;;3.03;;
12480;SDS011;6305;48.398;11.762;2023-12-20T07:17:02;4.60;;;2.90;;
12480;SDS011;6305;48.398;11.762;2023-12-20T07:19:29;4.13;;;3.05;;
12480;SDS011;6305;48.398;11.762;2023-12-20T07:21:57;5.90;;;3.17;;
12480;SDS011;6305;48.398;11.762;2023-12-20T07:24:24;5.38;;;3.38;;
12480;SDS011;6305;48.398;11.762;2023-12-20T07:26:52;5.32;;;3.85;;
12480;SDS011;6305;48.398;11.762;2023-12-20T07:29:18;5.85;;;3.88;;
12480;SDS011;6305;48.398;11.762;2023-12-20T07:31:47;6.75;;;4.35;;
12480;SDS011;6305;48.398;11.762;2023-12-20T07:34:14;5.65;;;4.50;;
12480;SDS011;6305;48.398;11.762;2023-12-20T07:36:41;7.60;;;4.95;;
12480;SDS011;6305;48.398;11.762;2023-12-20T07:39:08;6.43;;;4.80;;
12480;SDS011;6305;48.398;11.762;2023-12-20T07:41:35;6.75;;;4.57;;
12480;SDS011;6305;48.398;11.762;2023-12-20T07:44:03;10.30;;;5.13;;
12480;SDS011;6305;48.398;11.762;2023-12-20T07:46:30;8.77;;;5.60;;
12480;SDS011;6305;48.398;11.762;2023-12-20T07:48:58;8.30;;;5.72;;
12480;SDS011;6305;48.398;11.762;2023-12-20T07:51:25;9.70;;;5.63;;
12480;SDS011;6305;48.398;11.762;2023-12-20T07:53:52;8.52;;;5.70;;
12480;SDS011;6305;48.398;11.762;2023-12-20T07:56:19;8.90;;;5.88;;
12480;SDS011;6305;48.398;11.762;2023-12-20T07:58:46;10.10;;;6.07;;
12480;SDS011;6305;48.398;11.762;2023-12-20T08:01:15;9.57;;;6.28;;
12480;SDS011;6305;48.398;11.762;2023-12-20T08:03:42;9.05;;;6.45;;
12480;SDS011;6305;48.398;11.762;2023-12-20T08:06:11;10.23;;;6.32;;
12480;SDS011;6305;48.398;11.762;2023-12-20T08:08:38;9.18;;;6.20;;
12480;SDS011;6305;48.398;11.762;2023-12-20T08:11:05;9.73;;;6.63;;
12480;SDS011;6305;48.398;11.762;2023-12-20T08:13:31;10.25;;;6.57;;
12480;SDS011;6305;48.398;11.762;2023-12-20T08:15:58;11.20;;;6.68;;
12480;SDS011;6305;48.398;11.762;2023-12-20T08:18:27;10.82;;;6.30;;
12480;SDS011;6305;48.398;11.762;2023-12-20T08:20:54;10.60;;;7.05;;
12480;SDS011;6305;48.398;11.762;2023-12-20T08:23:23;10.75;;;6.22;;
12480;SDS011;6305;48.398;11.762;2023-12-20T08:25:50;13.38;;;6.60;;
12480;SDS011;6305;48.398;11.762;2023-12-20T08:28:16;12.10;;;6.68;;
12480;SDS011;6305;48.398;11.762;2023-12-20T08:30:43;9.25;;;6.20;;
12480;SDS011;6305;48.398;11.762;2023-12-20T08:33:10;9.80;;;6.60;;
12480;SDS011;6305;48.398;11.762;2023-12-20T08:35:38;9.27;;;6.50;;
12480;SDS011;6305;48.398;11.762;2023-12-20T08:38:05;10.55;;;6.63;;
12480;SDS011;6305;48.398;11.762;2023-12-20T08:40:33;10.05;;;6.88;;
12480;SDS011;6305;48.398;11.762;2023-12-20T08:43:00;10.27;;;6.18;;
12480;SDS011;6305;48.398;11.762;2023-12-20T08:45:27;9.00;;;6.45;;
12480;SDS011;6305;48.398;11.762;2023-12-20T08:47:54;11.98;;;6.68;;
12480;SDS011;6305;48.398;11.762;2023-12-20T08:50:21;10.15;;;5.95;;
12480;SDS011;6305;48.398;11.762;2023-12-20T08:52:48;9.27;;;6.22;;
12480;SDS011;6305;48.398;11.762;2023-12-20T08:55:15;8.02;;;5.82;;
12480;SDS011;6305;48.398;11.762;2023-12-20T08:57:44;9.38;;;6.32;;
12480;SDS011;6305;48.398;11.762;2023-12-20T09:00:12;12.27;;;6.97;;
12480;SDS011;6305;48.398;11.762;2023-12-20T09:02:40;9.20;;;6.03;;
12480;SDS011;6305;48.398;11.762;2023-12-20T09:05:07;8.18;;;5.28;;
12480;SDS011;6305;48.398;11.762;2023-12-20T09:07:34;7.45;;;5.32;;
12480;SDS011;6305;48.398;11.762;2023-12-20T09:10:01;11.05;;;5.75;;
12480;SDS011;6305;48.398;11.762;2023-12-20T09:12:29;7.65;;;5.43;;
12480;SDS011;6305;48.398;11.762;2023-12-20T09:14:57;8.82;;;5.75;;
12480;SDS011;6305;48.398;11.762;2023-12-20T09:17:25;7.13;;;5.32;;
12480;SDS011;6305;48.398;11.762;2023-12-20T09:19:51;7.03;;;4.95;;
12480;SDS011;6305;48.398;11.762;2023-12-20T09:22:19;7.63;;;5.43;;
12480;SDS011;6305;48.398;11.762;2023-12-20T09:24:46;7.03;;;4.72;;
12480;SDS011;6305;48.398;11.762;2023-12-20T09:27:13;7.13;;;4.80;;
12480;SDS011;6305;48.398;11.762;2023-12-20T09:29:41;5.97;;;4.80;;
12480;SDS011;6305;48.398;11.762;2023-12-20T09:32:09;6.50;;;4.57;;
12480;SDS011;6305;48.398;11.762;2023-12-20T09:34:36;4.85;;;4.18;;
12480;SDS011;6305;48.398;11.762;2023-12-20T09:37:03;6.18;;;4.40;;
12480;SDS011;6305;48.398;11.762;2023-12-20T09:39:30;5.22;;;4.55;;
12480;SDS011;6305;48.398;11.762;2023-12-20T09:42:00;5.65;;;4.10;;
12480;SDS011;6305;48.398;11.762;2023-12-20T09:44:27;4.93;;;4.10;;
12480;SDS011;6305;48.398;11.762;2023-12-20T09:46:55;5.63;;;3.97;;
12480;SDS011;6305;48.398;11.762;2023-12-20T09:49:25;5.05;;;3.80;;
12480;SDS011;6305;48.398;11.762;2023-12-20T09:51:54;6.30;;;4.07;;
12480;SDS011;6305;48.398;11.762;2023-12-20T09:54:21;6.28;;;4.10;;
12480;SDS011;6305;48.398;11.762;2023-12-20T09:56:49;5.20;;;3.78;;
12480;SDS011;6305;48.398;11.762;2023-12-20T09:59:16;5.32;;;3.80;;
12480;SDS011;6305;48.398;11.762;2023-12-20T10:01:43;6.63;;;4.32;;
12480;SDS011;6305;48.398;11.762;2023-12-20T10:04:10;5.30;;;4.13;;
12480;SDS011;6305;48.398;11.762;2023-12-20T10:06:41;5.88;;;3.95;;
12480;SDS011;6305;48.398;11.762;2023-12-20T10:09:09;5.88;;;3.92;;
12480;SDS011;6305;48.398;11.762;2023-12-20T10:11:36;5.00;;;3.75;;
12480;SDS011;6305;48.398;11.762;2023-12-20T10:14:04;4.75;;;3.80;;
12480;SDS011;6305;48.398;11.762;2023-12-20T10:16:31;5.93;;;3.88;;
12480;SDS011;6305;48.398;11.762;2023-12-20T10:18:59;5.03;;;3.63;;
12480;SDS011;6305;48.398;11.762;2023-12-20T10:21:27;4.93;;;3.58;;
12480;SDS011;6305;48.398;11.762;2023-12-20T10:23:56;4.82;;;3.75;;
12480;SDS011;6305;48.398;11.762;2023-12-20T10:26:24;5.45;;;3.88;;
12480;SDS011;6305;48.398;11.762;2023-12-20T10:28:53;6.15;;;3.53;;
12480;SDS011;6305;48.398;11.762;2023-12-20T10:31:27;4.40;;;3.50;;
12480;SDS011;6305;48.398;11.762;2023-12-20T10:33:56;3.90;;;2.80;;
12480;SDS011;6305;48.398;11.762;2023-12-20T10:36:24;5.63;;;3.55;;
12480;SDS011;6305;48.398;11.762;2023-12-20T10:38:53;4.82;;;3.53;;
12480;SDS011;6305;48.398;11.762;2023-12-20T10:41:24;5.25;;;3.40;;
12480;SDS011;6305;48.398;11.762;2023-12-20T10:43:55;4.55;;;3.50;;
12480;SDS011;6305;48.398;11.762;2023-12-20T10:46:24;5.13;;;3.28;;
12480;SDS011;6305;48.398;11.762;2023-12-20T10:48:53;3.85;;;3.08;;
12480;SDS011;6305;48.398;11.762;2023-12-20T10:51:21;5.47;;;3.53;;
12480;SDS011;6305;48.398;11.762;2023-12-20T10:53:52;5.22;;;3.40;;
12480;SDS011;6305;48.398;11.762;2023-12-20T10:56:20;4.50;;;3.25;;
12480;SDS011;6305;48.398;11.762;2023-12-20T10:58:50;4.20;;;3.40;;
12480;SDS011;6305;48.398;11.762;2023-12-20T11:01:17;4.82;;;3.30;;
12480;SDS011;6305;48.398;11.762;2023-12-20T11:03:48;4.85;;;3.55;;
12480;SDS011;6305;48.398;11.762;2023-12-20T11:06:19;5.57;;;3.60;;
12480;SDS011;6305;48.398;11.762;2023-12-20T11:08:56;4.72;;;3.35;;
12480;SDS011;6305;48.398;11.762;2023-12-20T11:11:35;4.28;;;3.20;;
12480;SDS011;6305;48.398;11.762;2023-12-20T11:14:13;4.85;;;3.42;;
12480;SDS011;6305;48.398;11.762;2023-12-20T11:16:43;5.50;;;3.40;;
12480;SDS011;6305;48.398;11.762;2023-12-20T11:19:11;4.10;;;3.15;;
12480;SDS011;6305;48.398;11.762;2023-12-20T11:21:40;4.45;;;3.35;;
12480;SDS011;6305;48.398;11.762;2023-12-20T11:24:07;3.65;;;2.92;;
12480;SDS011;6305;48.398;11.762;2023-12-20T11:26:34;3.30;;;2.90;;
12480;SDS011;6305;48.398;11.762;2023-12-20T11:32:01;6.88;;;3.53;;
12480;SDS011;6305;48.398;11.762;2023-12-20T11:34:31;4.75;;;3.33;;
12480;SDS011;6305;48.398;11.762;2023-12-20T11:36:59;4.82;;;3.63;;
12480;SDS011;6305;48.398;11.762;2023-12-20T11:39:28;5.72;;;3.85;;
12480;SDS011;6305;48.398;11.762;2023-12-20T11:41:57;5.75;;;3.35;;
12480;SDS011;6305;48.398;11.762;2023-12-20T11:44:31;5.72;;;3.08;;
12480;SDS011;6305;48.398;11.762;2023-12-20T11:46:59;4.20;;;3.20;;
12480;SDS011;6305;48.398;11.762;2023-12-20T11:49:26;3.75;;;3.13;;
12480;SDS011;6305;48.398;11.762;2023-12-20T11:51:54;4.20;;;3.00;;
12480;SDS011;6305;48.398;11.762;2023-12-20T11:54:21;3.53;;;3.00;;
12480;SDS011;6305;48.398;11.762;2023-12-20T11:56:48;3.17;;;2.53;;
12480;SDS011;6305;48.398;11.762;2023-12-20T11:59:16;3.28;;;2.58;;
12480;SDS011;6305;48.398;11.762;2023-12-20T12:01:48;3.85;;;2.80;;
12480;SDS011;6305;48.398;11.762;2023-12-20T12:04:16;3.45;;;2.65;;
12480;SDS011;6305;48.398;11.762;2023-12-20T12:06:43;3.90;;;2.60;;
12480;SDS011;6305;48.398;11.762;2023-12-20T12:09:10;3.05;;;2.28;;
12480;SDS011;6305;48.398;11.762;2023-12-20T12:11:37;3.22;;;2.28;;
12480;SDS011;6305;48.398;11.762;2023-12-20T12:14:04;3.58;;;2.42;;
12480;SDS011;6305;48.398;11.762;2023-12-20T12:16:33;2.42;;;2.17;;
12480;SDS011;6305;48.398;11.762;2023-12-20T12:19:01;2.50;;;2.03;;
12480;SDS011;6305;48.398;11.762;2023-12-20T12:21:29;2.42;;;2.13;;
12480;SDS011;6305;48.398;11.762;2023-12-20T12:24:06;2.60;;;2.22;;
12480;SDS011;6305;48.398;11.762;2023-12-20T12:26:33;2.28;;;2.08;;
12480;SDS011;6305;48.398;11.762;2023-12-20T12:29:00;2.70;;;2.20;;
12480;SDS011;6305;48.398;11.762;2023-12-20T12:31:27;1.95;;;1.73;;
12480;SDS011;6305;48.398;11.762;2023-12-20T12:33:55;2.15;;;1.95;;
12480;SDS011;6305;48.398;11.762;2023-12-20T12:36:24;4.05;;;2.10;;
12480;SDS011;6305;48.398;11.762;2023-12-20T12:38:51;2.13;;;1.90;;
12480;SDS011;6305;48.398;11.762;2023-12-20T12:41:18;3.22;;;2.10;;
12480;SDS011;6305;48.398;11.762;2023-12-20T12:43:44;2.40;;;1.80;;
12480;SDS011;6305;48.398;11.762;2023-12-20T12:46:12;3.15;;;1.80;;
12480;SDS011;6305;48.398;11.762;2023-12-20T12:48:39;1.98;;;1.77;;
12480;SDS011;6305;48.398;11.762;2023-12-20T12:51:06;1.65;;;1.52;;
12480;SDS011;6305;48.398;11.762;2023-12-20T12:53:39;1.48;;;1.38;;
12480;SDS011;6305;48.398;11.762;2023-12-20T12:56:06;1.55;;;1.42;;
12480;SDS011;6305;48.398;11.762;2023-12-20T12:58:33;1.20;;;1.10;;
12480;SDS011;6305;48.398;11.762;2023-12-20T13:01:00;2.38;;;1.10;;
12480;SDS011;6305;48.398;11.762;2023-12-20T13:03:28;1.45;;;1.20;;
12480;SDS011;6305;48.398;11.762;2023-12-20T13:05:55;1.52;;;1.42;;
12480;SDS011;6305;48.398;11.762;2023-12-20T13:08:22;1.98;;;1.38;;
12480;SDS011;6305;48.398;11.762;2023-12-20T13:10:51;1.40;;;1.20;;
12480;SDS011;6305;48.398;11.762;2023-12-20T13:13:18;1.23;;;1.08;;
12480;SDS011;6305;48.398;11.762;2023-12-20T13:15:45;2.28;;;1.48;;
12480;SDS011;6305;48.398;11.762;2023-12-20T13:18:16;3.30;;;1.40;;
12480;SDS011;6305;48.398;11.762;2023-12-20T13:20:43;2.92;;;1.95;;
12480;SDS011;6305;48.398;11.762;2023-12-20T13:23:10;2.90;;;1.70;;
12480;SDS011;6305;48.398;11.762;2023-12-20T13:25:37;2.58;;;1.73;;
12480;SDS011;6305;48.398;11.762;2023-12-20T13:28:05;2.78;;;1.80;;
12480;SDS011;6305;48.398;11.762;2023-12-20T13:30:33;2.58;;;1.30;;
12480;SDS011;6305;48.398;11.762;2023-12-20T13:33:01;2.88;;;1.50;;
12480;SDS011;6305;48.398;11.762;2023-12-20T13:35:27;2.50;;;1.50;;
12480;SDS011;6305;48.398;11.762;2023-12-20T13:37:54;1.30;;;1.20;;
12480;SDS011;6305;48.398;11.762;2023-12-20T13:40:22;2.97;;;1.42;;
12480;SDS011;6305;48.398;11.762;2023-12-20T13:42:49;2.92;;;1.60;;
12480;SDS011;6305;48.398;11.762;2023-12-20T13:45:17;3.92;;;1.40;;
12480;SDS011;6305;48.398;11.762;2023-12-20T13:47:44;1.38;;;1.10;;
12480;SDS011;6305;48.398;11.762;2023-12-20T13:50:11;2.47;;;1.50;;
12480;SDS011;6305;48.398;11.762;2023-12-20T13:52:38;4.05;;;1.40;;
12480;SDS011;6305;48.398;11.762;2023-12-20T13:55:05;3.75;;;1.70;;
12480;SDS011;6305;48.398;11.762;2023-12-20T13:57:33;1.98;;;1.27;;
12480;SDS011;6305;48.398;11.762;2023-12-20T14:00:03;3.45;;;1.55;;
12480;SDS011;6305;48.398;11.762;2023-12-20T14:02:34;1.73;;;1.42;;
12480;SDS011;6305;48.398;11.762;2023-12-20T14:05:02;3.78;;;1.60;;
12480;SDS011;6305;48.398;11.762;2023-12-20T14:07:29;3.60;;;1.63;;
12480;SDS011;6305;48.398;11.762;2023-12-20T14:09:56;3.85;;;1.67;;
12480;SDS011;6305;48.398;11.762;2023-12-20T14:12:24;3.47;;;1.60;;
12480;SDS011;6305;48.398;11.762;2023-12-20T14:14:51;3.70;;;1.40;;
12480;SDS011;6305;48.398;11.762;2023-12-20T14:17:21;2.70;;;1.38;;
12480;SDS011;6305;48.398;11.762;2023-12-20T14:19:49;2.78;;;1.50;;
12480;SDS011;6305;48.398;11.762;2023-12-20T14:22:16;3.17;;;1.45;;
12480;SDS011;6305;48.398;11.762;2023-12-20T14:24:43;3.40;;;1.45;;
12480;SDS011;6305;48.398;11.762;2023-12-20T14:27:11;2.22;;;1.25;;
12480;SDS011;6305;48.398;11.762;2023-12-20T14:29:38;2.42;;;1.20;;
12480;SDS011;6305;48.398;11.762;2023-12-20T14:32:05;2.45;;;1.30;;
12480;SDS011;6305;48.398;11.762;2023-12-20T14:34:32;2.85;;;1.40;;
12480;SDS011;6305;48.398;11.762;2023-12-20T14:37:01;3.13;;;1.42;;
12480;SDS011;6305;48.398;11.762;2023-12-20T14:39:28;3.55;;;1.58;;
12480;SDS011;6305;48.398;11.762;2023-12-20T14:41:54;3.75;;;1.40;;
12480;SDS011;6305;48.398;11.762;2023-12-20T14:44:21;2.88;;;1.48;;
12480;SDS011;6305;48.398;11.762;2023-12-20T14:46:48;3.55;;;1.20;;
12480;SDS011;6305;48.398;11.762;2023-12-20T14:49:16;5.30;;;1.40;;
12480;SDS011;6305;48.398;11.762;2023-12-20T14:51:43;2.95;;;1.30;;
12480;SDS011;6305;48.398;11.762;2023-12-20T14:54:14;3.25;;;1.40;;